sensor_id;sensor_type;location;lat;lon;timestamp;pressure;altitude;pressure_sealevel;temperature;humidity
36014;BME280;22275;43.208;27.620;2023-03-25T00:01:17;101136.78;;;11.40;100.00
36014;BME280;22275;43.208;27.620;2023-03-25T00:03:50;101127.38;;;11.20;100.00
36014;BME280;22275;43.208;27.620;2023-03-25T00:06:19;101127.72;;;11.14;100.00
36014;BME280;22275;43.208;27.620;2023-03-25T00:08:46;101124.28;;;10.96;100.00
36014;BME280;22275;43.208;27.620;2023-03-25T00:11:14;101122.66;;;11.10;100.00
36014;BME280;22275;43.208;27.620;2023-03-25T00:13:41;101126.84;;;11.14;100.00
36014;BME280;22275;43.208;27.620;2023-03-25T00:16:09;101124.13;;;10.84;100.00
36014;BME280;22275;43.208;27.620;2023-03-25T00:18:36;101128.22;;;10.89;100.00
36014;BME280;22275;43.208;27.620;2023-03-25T00:21:06;101118.09;;;10.98;100.00
36014;BME280;22275;43.208;27.620;2023-03-25T00:23:37;101110.38;;;10.62;100.00
36014;BME280;22275;43.208;27.620;2023-03-25T00:26:05;101101.81;;;10.74;100.00
36014;BME280;22275;43.208;27.620;2023-03-25T00:28:35;101107.94;;;10.74;100.00
36014;BME280;22275;43.208;27.620;2023-03-25T00:31:05;101096.91;;;10.83;100.00
36014;BME280;22275;43.208;27.620;2023-03-25T00:33:33;101108.13;;;10.87;100.00
36014;BME280;22275;43.208;27.620;2023-03-25T00:36:00;101105.75;;;10.82;100.00
36014;BME280;22275;43.208;27.620;2023-03-25T00:38:30;101104.50;;;10.89;100.00
36014;BME280;22275;43.208;27.620;2023-03-25T00:41:12;101095.78;;;10.87;100.00
36014;BME280;22275;43.208;27.620;2023-03-25T00:43:42;101090.75;;;11.45;100.00
36014;BME280;22275;43.208;27.620;2023-03-25T00:46:10;101086.94;;;11.81;100.00
36014;BME280;22275;43.208;27.620;2023-03-25T00:48:37;101090.72;;;11.77;100.00
36014;BME280;22275;43.208;27.620;2023-03-25T00:51:06;101079.53;;;11.42;100.00
36014;BME280;22275;43.208;27.620;2023-03-25T00:53:35;101076.31;;;11.37;100.00
36014;BME280;22275;43.208;27.620;2023-03-25T00:56:05;101080.66;;;11.38;100.00
36014;BME280;22275;43.208;27.620;2023-03-25T00:58:33;101075.00;;;11.44;100.00
36014;BME280;22275;43.208;27.620;2023-03-25T01:01:07;101072.97;;;11.49;100.00
36014;BME280;22275;43.208;27.620;2023-03-25T01:03:35;101059.41;;;11.55;100.00
36014;BME280;22275;43.208;27.620;2023-03-25T01:06:03;101053.88;;;11.60;100.00
36014;BME280;22275;43.208;27.620;2023-03-25T01:08:30;101052.25;;;11.27;100.00
36014;BME280;22275;43.208;27.620;2023-03-25T01:10:57;101051.81;;;11.35;100.00
36014;BME280;22275;43.208;27.620;2023-03-25T01:13:24;101059.69;;;11.50;100.00
36014;BME280;22275;43.208;27.620;2023-03-25T01:15:53;101060.13;;;11.43;100.00
36014;BME280;22275;43.208;27.620;2023-03-25T01:18:20;101054.31;;;10.91;100.00
36014;BME280;22275;43.208;27.620;2023-03-25T01:20:47;101063.66;;;9.82;100.00
36014;BME280;22275;43.208;27.620;2023-03-25T01:23:15;101066.09;;;9.34;100.00
36014;BME280;22275;43.208;27.620;2023-03-25T01:25:42;101062.69;;;9.32;100.00
36014;BME280;22275;43.208;27.620;2023-03-25T01:28:09;101056.31;;;9.02;100.00
36014;BME280;22275;43.208;27.620;2023-03-25T01:30:37;101052.06;;;8.99;100.00
36014;BME280;22275;43.208;27.620;2023-03-25T01:33:05;101054.06;;;9.11;100.00
36014;BME280;22275;43.208;27.620;2023-03-25T01:35:32;101059.28;;;8.94;100.00
36014;BME280;22275;43.208;27.620;2023-03-25T01:38:00;101017.84;;;9.18;100.00
36014;BME280;22275;43.208;27.620;2023-03-25T01:40:28;101034.06;;;9.62;100.00
36014;BME280;22275;43.208;27.620;2023-03-25T01:42:55;101035.16;;;9.91;100.00
36014;BME280;22275;43.208;27.620;2023-03-25T01:45:25;101024.50;;;9.59;100.00
36014;BME280;22275;43.208;27.620;2023-03-25T01:47:58;101031.47;;;9.60;100.00
36014;BME280;22275;43.208;27.620;2023-03-25T01:50:28;101036.88;;;8.87;100.00
36014;BME280;22275;43.208;27.620;2023-03-25T01:52:58;101036.28;;;9.35;100.00
36014;BME280;22275;43.208;27.620;2023-03-25T01:55:28;101035.69;;;9.11;100.00
36014;BME280;22275;43.208;27.620;2023-03-25T01:57:58;101037.78;;;9.05;100.00
36014;BME280;22275;43.208;27.620;2023-03-25T02:00:26;101040.09;;;8.56;100.00
36014;BME280;22275;43.208;27.620;2023-03-25T02:02:56;101038.44;;;8.73;100.00
36014;BME280;22275;43.208;27.620;2023-03-25T02:05:31;101023.91;;;8.47;100.00
36014;BME280;22275;43.208;27.620;2023-03-25T02:08:02;101029.84;;;8.32;100.00
36014;BME280;22275;43.208;27.620;2023-03-25T02:10:30;101021.69;;;7.99;100.00
36014;BME280;22275;43.208;27.620;2023-03-25T02:12:58;101031.66;;;8.11;100.00
36014;BME280;22275;43.208;27.620;2023-03-25T02:15:26;101037.13;;;8.45;100.00
36014;BME280;22275;43.208;27.620;2023-03-25T02:18:14;101034.34;;;8.48;100.00
36014;BME280;22275;43.208;27.620;2023-03-25T02:24:13;101021.19;;;8.30;100.00
36014;BME280;22275;43.208;27.620;2023-03-25T02:27:12;101026.31;;;8.13;100.00
36014;BME280;22275;43.208;27.620;2023-03-25T02:30:07;101022.75;;;8.90;100.00
36014;BME280;22275;43.208;27.620;2023-03-25T02:32:56;101016.47;;;9.11;100.00
36014;BME280;22275;43.208;27.620;2023-03-25T02:35:39;101005.31;;;9.06;100.00
36014;BME280;22275;43.208;27.620;2023-03-25T02:38:26;101017.97;;;9.34;100.00
36014;BME280;22275;43.208;27.620;2023-03-25T02:41:01;101000.03;;;9.59;100.00
36014;BME280;22275;43.208;27.620;2023-03-25T02:43:32;101005.03;;;9.29;100.00
36014;BME280;22275;43.208;27.620;2023-03-25T02:46:02;101004.44;;;8.88;100.00
36014;BME280;22275;43.208;27.620;2023-03-25T02:48:34;101009.59;;;7.76;100.00
36014;BME280;22275;43.208;27.620;2023-03-25T02:51:06;101017.66;;;7.51;100.00
36014;BME280;22275;43.208;27.620;2023-03-25T02:53:38;101008.81;;;8.13;100.00
36014;BME280;22275;43.208;27.620;2023-03-25T02:56:09;101007.72;;;8.56;100.00
36014;BME280;22275;43.208;27.620;2023-03-25T02:58:40;101006.53;;;8.44;100.00
36014;BME280;22275;43.208;27.620;2023-03-25T03:01:07;100996.22;;;8.58;100.00
36014;BME280;22275;43.208;27.620;2023-03-25T03:03:35;100983.56;;;8.85;100.00
36014;BME280;22275;43.208;27.620;2023-03-25T03:06:04;100986.72;;;8.92;100.00
36014;BME280;22275;43.208;27.620;2023-03-25T03:08:45;100973.03;;;8.49;100.00
36014;BME280;22275;43.208;27.620;2023-03-25T03:11:22;100982.28;;;8.94;100.00
36014;BME280;22275;43.208;27.620;2023-03-25T03:14:09;100983.94;;;9.13;100.00
36014;BME280;22275;43.208;27.620;2023-03-25T03:16:45;100981.97;;;9.34;100.00
36014;BME280;22275;43.208;27.620;2023-03-25T03:19:23;100962.97;;;8.59;100.00
36014;BME280;22275;43.208;27.620;2023-03-25T03:22:00;100975.94;;;8.43;100.00
36014;BME280;22275;43.208;27.620;2023-03-25T03:24:32;100973.97;;;8.30;100.00
36014;BME280;22275;43.208;27.620;2023-03-25T03:27:05;100966.59;;;8.56;100.00
36014;BME280;22275;43.208;27.620;2023-03-25T03:29:39;100966.53;;;8.94;100.00
36014;BME280;22275;43.208;27.620;2023-03-25T03:32:14;100961.75;;;9.19;100.00
36014;BME280;22275;43.208;27.620;2023-03-25T03:34:46;100965.28;;;9.52;100.00
36014;BME280;22275;43.208;27.620;2023-03-25T03:37:18;100953.78;;;8.68;100.00
36014;BME280;22275;43.208;27.620;2023-03-25T03:39:50;100963.00;;;8.57;100.00
36014;BME280;22275;43.208;27.620;2023-03-25T03:42:21;100957.84;;;9.09;100.00
36014;BME280;22275;43.208;27.620;2023-03-25T03:44:52;100957.56;;;9.32;100.00
36014;BME280;22275;43.208;27.620;2023-03-25T03:47:23;100962.31;;;8.90;100.00
36014;BME280;22275;43.208;27.620;2023-03-25T03:49:55;100962.50;;;9.04;100.00
36014;BME280;22275;43.208;27.620;2023-03-25T03:52:26;100966.38;;;9.31;100.00
36014;BME280;22275;43.208;27.620;2023-03-25T03:55:02;100950.28;;;9.54;100.00
36014;BME280;22275;43.208;27.620;2023-03-25T03:57:33;100955.41;;;10.06;100.00
36014;BME280;22275;43.208;27.620;2023-03-25T04:00:04;100944.13;;;10.52;100.00
36014;BME280;22275;43.208;27.620;2023-03-25T04:02:37;100938.44;;;10.44;100.00
36014;BME280;22275;43.208;27.620;2023-03-25T04:05:06;100950.50;;;10.64;100.00
36014;BME280;22275;43.208;27.620;2023-03-25T04:07:40;100940.53;;;10.69;100.00
36014;BME280;22275;43.208;27.620;2023-03-25T04:10:15;100957.53;;;10.32;100.00
36014;BME280;22275;43.208;27.620;2023-03-25T04:12:46;100952.78;;;10.70;100.00
36014;BME280;22275;43.208;27.620;2023-03-25T04:15:15;100942.72;;;10.76;100.00
36014;BME280;22275;43.208;27.620;2023-03-25T04:17:42;100944.19;;;11.12;100.00
36014;BME280;22275;43.208;27.620;2023-03-25T04:20:12;100946.44;;;10.88;100.00
36014;BME280;22275;43.208;27.620;2023-03-25T04:22:40;100939.22;;;11.21;100.00
36014;BME280;22275;43.208;27.620;2023-03-25T04:25:12;100925.38;;;10.88;100.00
36014;BME280;22275;43.208;27.620;2023-03-25T04:27:39;100937.84;;;11.00;100.00
36014;BME280;22275;43.208;27.620;2023-03-25T04:30:10;100945.75;;;11.44;100.00
36014;BME280;22275;43.208;27.620;2023-03-25T04:32:38;100945.03;;;11.56;100.00
36014;BME280;22275;43.208;27.620;2023-03-25T04:35:05;100934.84;;;11.50;100.00
36014;BME280;22275;43.208;27.620;2023-03-25T04:37:34;100949.13;;;11.02;100.00
36014;BME280;22275;43.208;27.620;2023-03-25T04:40:01;100958.75;;;11.33;100.00
36014;BME280;22275;43.208;27.620;2023-03-25T04:42:33;100958.75;;;11.33;100.00
36014;BME280;22275;43.208;27.620;2023-03-25T04:45:02;100944.91;;;11.87;100.00
36014;BME280;22275;43.208;27.620;2023-03-25T04:47:30;100927.94;;;12.20;100.00
36014;BME280;22275;43.208;27.620;2023-03-25T04:49:58;100932.06;;;12.24;100.00
36014;BME280;22275;43.208;27.620;2023-03-25T04:52:26;100923.94;;;12.27;100.00
36014;BME280;22275;43.208;27.620;2023-03-25T04:54:53;100917.00;;;12.12;100.00
36014;BME280;22275;43.208;27.620;2023-03-25T04:57:20;100915.69;;;12.04;100.00
36014;BME280;22275;43.208;27.620;2023-03-25T04:59:49;100919.16;;;12.19;100.00
36014;BME280;22275;43.208;27.620;2023-03-25T05:02:17;100922.97;;;12.68;100.00
36014;BME280;22275;43.208;27.620;2023-03-25T05:04:45;100941.16;;;13.00;100.00
36014;BME280;22275;43.208;27.620;2023-03-25T05:07:13;100945.53;;;12.74;100.00
36014;BME280;22275;43.208;27.620;2023-03-25T05:09:40;100947.34;;;11.76;100.00
36014;BME280;22275;43.208;27.620;2023-03-25T05:12:08;100956.69;;;11.82;100.00
36014;BME280;22275;43.208;27.620;2023-03-25T05:14:35;100950.91;;;12.32;100.00
36014;BME280;22275;43.208;27.620;2023-03-25T05:17:04;100948.53;;;12.82;100.00
36014;BME280;22275;43.208;27.620;2023-03-25T05:19:31;100925.56;;;13.09;100.00
36014;BME280;22275;43.208;27.620;2023-03-25T05:21:59;100936.00;;;12.98;100.00
36014;BME280;22275;43.208;27.620;2023-03-25T05:24:29;100938.03;;;13.72;100.00
36014;BME280;22275;43.208;27.620;2023-03-25T05:26:56;100943.94;;;13.63;100.00
36014;BME280;22275;43.208;27.620;2023-03-25T05:29:27;100934.09;;;13.40;100.00
36014;BME280;22275;43.208;27.620;2023-03-25T05:31:59;100929.97;;;13.36;100.00
36014;BME280;22275;43.208;27.620;2023-03-25T05:34:28;100921.72;;;13.53;100.00
36014;BME280;22275;43.208;27.620;2023-03-25T05:36:55;100918.09;;;13.54;100.00
36014;BME280;22275;43.208;27.620;2023-03-25T05:39:23;100920.22;;;13.23;100.00
36014;BME280;22275;43.208;27.620;2023-03-25T05:41:50;100927.53;;;13.33;100.00
36014;BME280;22275;43.208;27.620;2023-03-25T05:44:20;100936.19;;;13.35;100.00
36014;BME280;22275;43.208;27.620;2023-03-25T05:46:47;100926.41;;;13.62;100.00
36014;BME280;22275;43.208;27.620;2023-03-25T05:49:14;100905.22;;;13.37;100.00
36014;BME280;22275;43.208;27.620;2023-03-25T05:51:43;100908.78;;;13.23;100.00
36014;BME280;22275;43.208;27.620;2023-03-25T05:54:10;100900.03;;;13.48;100.00
36014;BME280;22275;43.208;27.620;2023-03-25T05:56:37;100899.28;;;13.46;100.00
36014;BME280;22275;43.208;27.620;2023-03-25T05:59:06;100882.34;;;13.36;100.00
36014;BME280;22275;43.208;27.620;2023-03-25T06:01:35;100889.97;;;13.40;100.00
36014;BME280;22275;43.208;27.620;2023-03-25T06:04:03;100881.72;;;13.19;100.00
36014;BME280;22275;43.208;27.620;2023-03-25T06:06:34;100898.88;;;13.39;100.00
36014;BME280;22275;43.208;27.620;2023-03-25T06:09:03;100901.59;;;13.63;100.00
36014;BME280;22275;43.208;27.620;2023-03-25T06:11:30;100901.81;;;13.60;100.00
36014;BME280;22275;43.208;27.620;2023-03-25T06:14:03;100903.06;;;13.79;100.00
36014;BME280;22275;43.208;27.620;2023-03-25T06:16:30;100893.75;;;13.87;100.00
36014;BME280;22275;43.208;27.620;2023-03-25T06:18:58;100891.53;;;13.68;100.00
36014;BME280;22275;43.208;27.620;2023-03-25T06:21:26;100907.22;;;13.96;100.00
36014;BME280;22275;43.208;27.620;2023-03-25T06:23:53;100886.53;;;14.01;100.00
36014;BME280;22275;43.208;27.620;2023-03-25T06:26:22;100900.22;;;14.31;100.00
36014;BME280;22275;43.208;27.620;2023-03-25T06:28:50;100900.22;;;13.95;100.00
36014;BME280;22275;43.208;27.620;2023-03-25T06:31:18;100911.91;;;14.16;100.00
36014;BME280;22275;43.208;27.620;2023-03-25T06:33:48;100915.69;;;14.25;100.00
36014;BME280;22275;43.208;27.620;2023-03-25T06:36:18;100918.78;;;14.31;100.00
36014;BME280;22275;43.208;27.620;2023-03-25T06:38:46;100913.34;;;14.46;100.00
36014;BME280;22275;43.208;27.620;2023-03-25T06:41:14;100925.81;;;14.32;100.00
36014;BME280;22275;43.208;27.620;2023-03-25T06:43:46;100916.28;;;14.54;100.00
36014;BME280;22275;43.208;27.620;2023-03-25T06:46:14;100921.06;;;14.49;100.00
36014;BME280;22275;43.208;27.620;2023-03-25T06:48:41;100908.75;;;14.84;100.00
36014;BME280;22275;43.208;27.620;2023-03-25T06:51:09;100882.28;;;14.48;100.00
36014;BME280;22275;43.208;27.620;2023-03-25T06:53:36;100904.28;;;14.61;100.00
36014;BME280;22275;43.208;27.620;2023-03-25T06:56:03;100891.78;;;14.98;100.00
36014;BME280;22275;43.208;27.620;2023-03-25T06:58:30;100903.63;;;15.05;100.00
36014;BME280;22275;43.208;27.620;2023-03-25T07:01:02;100903.94;;;14.89;100.00
36014;BME280;22275;43.208;27.620;2023-03-25T07:03:31;100905.78;;;15.00;100.00
36014;BME280;22275;43.208;27.620;2023-03-25T07:05:58;100888.50;;;15.29;100.00
36014;BME280;22275;43.208;27.620;2023-03-25T07:08:25;100901.47;;;15.56;100.00
36014;BME280;22275;43.208;27.620;2023-03-25T07:10:53;100888.13;;;15.68;100.00
36014;BME280;22275;43.208;27.620;2023-03-25T07:13:20;100880.34;;;15.43;100.00
36014;BME280;22275;43.208;27.620;2023-03-25T07:15:47;100888.22;;;15.67;100.00
36014;BME280;22275;43.208;27.620;2023-03-25T07:18:16;100881.84;;;15.91;100.00
36014;BME280;22275;43.208;27.620;2023-03-25T07:20:43;100882.31;;;16.07;100.00
36014;BME280;22275;43.208;27.620;2023-03-25T07:23:10;100883.72;;;16.34;100.00
36014;BME280;22275;43.208;27.620;2023-03-25T07:25:37;100888.06;;;16.24;100.00
36014;BME280;22275;43.208;27.620;2023-03-25T07:28:05;100886.84;;;16.39;100.00
36014;BME280;22275;43.208;27.620;2023-03-25T07:30:32;100889.97;;;16.44;100.00
36014;BME280;22275;43.208;27.620;2023-03-25T07:32:59;100880.66;;;16.38;100.00
36014;BME280;22275;43.208;27.620;2023-03-25T07:35:27;100877.91;;;16.40;100.00
36014;BME280;22275;43.208;27.620;2023-03-25T07:37:55;100878.78;;;16.72;100.00
36014;BME280;22275;43.208;27.620;2023-03-25T07:40:22;100872.31;;;16.65;100.00
36014;BME280;22275;43.208;27.620;2023-03-25T07:42:49;100870.75;;;16.83;100.00
36014;BME280;22275;43.208;27.620;2023-03-25T07:45:16;100861.09;;;17.03;100.00
36014;BME280;22275;43.208;27.620;2023-03-25T07:47:44;100849.56;;;17.13;100.00
36014;BME280;22275;43.208;27.620;2023-03-25T07:50:15;100859.19;;;17.05;100.00
36014;BME280;22275;43.208;27.620;2023-03-25T07:52:44;100860.66;;;17.39;100.00
36014;BME280;22275;43.208;27.620;2023-03-25T07:55:11;100856.06;;;17.20;100.00
36014;BME280;22275;43.208;27.620;2023-03-25T07:57:39;100854.03;;;17.34;100.00
36014;BME280;22275;43.208;27.620;2023-03-25T08:00:08;100847.22;;;17.20;100.00
36014;BME280;22275;43.208;27.620;2023-03-25T08:02:35;100843.78;;;17.29;100.00
36014;BME280;22275;43.208;27.620;2023-03-25T08:05:04;100853.22;;;17.43;100.00
36014;BME280;22275;43.208;27.620;2023-03-25T08:07:31;100828.56;;;17.20;100.00
36014;BME280;22275;43.208;27.620;2023-03-25T08:10:00;100837.34;;;17.32;100.00
36014;BME280;22275;43.208;27.620;2023-03-25T08:12:27;100840.38;;;17.48;100.00
36014;BME280;22275;43.208;27.620;2023-03-25T08:14:55;100841.50;;;17.45;100.00
36014;BME280;22275;43.208;27.620;2023-03-25T08:17:22;100831.81;;;17.65;100.00
36014;BME280;22275;43.208;27.620;2023-03-25T08:19:49;100835.88;;;17.48;100.00
36014;BME280;22275;43.208;27.620;2023-03-25T08:22:16;100834.91;;;17.70;100.00
36014;BME280;22275;43.208;27.620;2023-03-25T08:24:44;100841.69;;;17.53;100.00
36014;BME280;22275;43.208;27.620;2023-03-25T08:27:13;100840.72;;;17.85;100.00
36014;BME280;22275;43.208;27.620;2023-03-25T08:29:40;100818.94;;;18.38;100.00
36014;BME280;22275;43.208;27.620;2023-03-25T08:32:07;100820.97;;;17.97;100.00
36014;BME280;22275;43.208;27.620;2023-03-25T08:34:35;100823.81;;;18.14;100.00
36014;BME280;22275;43.208;27.620;2023-03-25T08:37:05;100826.81;;;17.81;100.00
36014;BME280;22275;43.208;27.620;2023-03-25T08:39:33;100812.25;;;17.95;100.00
36014;BME280;22275;43.208;27.620;2023-03-25T08:42:04;100825.34;;;18.17;100.00
36014;BME280;22275;43.208;27.620;2023-03-25T08:44:33;100811.78;;;18.29;100.00
36014;BME280;22275;43.208;27.620;2023-03-25T08:47:01;100819.31;;;18.15;100.00
36014;BME280;22275;43.208;27.620;2023-03-25T08:49:28;100793.25;;;18.18;100.00
36014;BME280;22275;43.208;27.620;2023-03-25T08:51:56;100795.88;;;17.99;100.00
36014;BME280;22275;43.208;27.620;2023-03-25T08:54:23;100808.84;;;17.73;100.00
36014;BME280;22275;43.208;27.620;2023-03-25T08:56:51;100807.75;;;17.86;100.00
36014;BME280;22275;43.208;27.620;2023-03-25T08:59:19;100803.31;;;17.96;100.00
36014;BME280;22275;43.208;27.620;2023-03-25T09:01:48;100806.41;;;18.20;100.00
36014;BME280;22275;43.208;27.620;2023-03-25T09:04:16;100805.97;;;18.05;100.00
36014;BME280;22275;43.208;27.620;2023-03-25T09:06:43;100803.38;;;18.44;100.00
36014;BME280;22275;43.208;27.620;2023-03-25T09:09:10;100787.69;;;18.50;100.00
36014;BME280;22275;43.208;27.620;2023-03-25T09:11:37;100777.66;;;18.43;100.00
36014;BME280;22275;43.208;27.620;2023-03-25T09:14:05;100778.38;;;18.83;100.00
36014;BME280;22275;43.208;27.620;2023-03-25T09:16:32;100782.63;;;18.57;100.00
36014;BME280;22275;43.208;27.620;2023-03-25T09:19:02;100769.94;;;18.39;100.00
36014;BME280;22275;43.208;27.620;2023-03-25T09:21:29;100776.13;;;18.40;100.00
36014;BME280;22275;43.208;27.620;2023-03-25T09:23:56;100788.16;;;18.06;100.00
36014;BME280;22275;43.208;27.620;2023-03-25T09:26:23;100779.75;;;18.20;100.00
36014;BME280;22275;43.208;27.620;2023-03-25T09:28:51;100785.25;;;18.18;100.00
36014;BME280;22275;43.208;27.620;2023-03-25T09:31:20;100771.09;;;18.27;100.00
36014;BME280;22275;43.208;27.620;2023-03-25T09:33:47;100775.56;;;18.27;100.00
36014;BME280;22275;43.208;27.620;2023-03-25T09:36:16;100782.47;;;17.80;100.00
36014;BME280;22275;43.208;27.620;2023-03-25T09:38:43;100783.94;;;18.03;100.00
36014;BME280;22275;43.208;27.620;2023-03-25T09:41:25;100776.81;;;18.04;100.00
36014;BME280;22275;43.208;27.620;2023-03-25T09:44:01;100779.28;;;17.76;100.00
36014;BME280;22275;43.208;27.620;2023-03-25T09:46:31;100766.75;;;18.36;100.00
36014;BME280;22275;43.208;27.620;2023-03-25T09:48:59;100768.81;;;18.23;100.00
36014;BME280;22275;43.208;27.620;2023-03-25T09:51:30;100758.56;;;18.28;100.00
36014;BME280;22275;43.208;27.620;2023-03-25T09:54:04;100781.59;;;18.10;100.00
36014;BME280;22275;43.208;27.620;2023-03-25T09:56:36;100753.31;;;17.88;100.00
36014;BME280;22275;43.208;27.620;2023-03-25T09:59:06;100763.72;;;17.91;100.00
36014;BME280;22275;43.208;27.620;2023-03-25T10:01:39;100752.63;;;17.76;100.00
36014;BME280;22275;43.208;27.620;2023-03-25T10:04:39;100751.50;;;17.79;100.00
36014;BME280;22275;43.208;27.620;2023-03-25T10:07:22;100746.59;;;17.84;100.00
36014;BME280;22275;43.208;27.620;2023-03-25T10:09:58;100764.84;;;17.89;100.00
36014;BME280;22275;43.208;27.620;2023-03-25T10:12:36;100758.94;;;17.85;100.00
36014;BME280;22275;43.208;27.620;2023-03-25T10:15:16;100738.16;;;17.69;100.00
36014;BME280;22275;43.208;27.620;2023-03-25T10:17:54;100733.16;;;17.95;100.00
36014;BME280;22275;43.208;27.620;2023-03-25T10:20:32;100720.53;;;18.07;100.00
36014;BME280;22275;43.208;27.620;2023-03-25T10:23:09;100709.88;;;18.26;100.00
36014;BME280;22275;43.208;27.620;2023-03-25T10:25:43;100714.94;;;18.38;100.00
36014;BME280;22275;43.208;27.620;2023-03-25T10:28:16;100709.59;;;18.00;100.00
36014;BME280;22275;43.208;27.620;2023-03-25T10:30:45;100702.16;;;18.23;100.00
36014;BME280;22275;43.208;27.620;2023-03-25T10:33:20;100697.53;;;18.44;100.00
36014;BME280;22275;43.208;27.620;2023-03-25T10:35:53;100689.81;;;18.51;100.00
36014;BME280;22275;43.208;27.620;2023-03-25T10:38:24;100694.00;;;18.63;100.00
36014;BME280;22275;43.208;27.620;2023-03-25T10:41:06;100673.81;;;18.12;100.00
36014;BME280;22275;43.208;27.620;2023-03-25T10:43:39;100682.38;;;17.87;100.00
36014;BME280;22275;43.208;27.620;2023-03-25T10:46:12;100684.16;;;17.77;100.00
36014;BME280;22275;43.208;27.620;2023-03-25T10:48:40;100668.06;;;17.98;100.00
36014;BME280;22275;43.208;27.620;2023-03-25T10:51:09;100670.59;;;17.90;100.00
36014;BME280;22275;43.208;27.620;2023-03-25T10:53:39;100647.31;;;17.92;100.00
36014;BME280;22275;43.208;27.620;2023-03-25T10:56:10;100665.53;;;18.06;100.00
36014;BME280;22275;43.208;27.620;2023-03-25T10:58:40;100650.69;;;17.84;100.00
36014;BME280;22275;43.208;27.620;2023-03-25T11:01:10;100645.66;;;17.91;100.00
36014;BME280;22275;43.208;27.620;2023-03-25T11:03:39;100645.34;;;17.94;100.00
36014;BME280;22275;43.208;27.620;2023-03-25T11:06:19;100629.91;;;17.68;100.00
36014;BME280;22275;43.208;27.620;2023-03-25T11:09:11;100638.84;;;18.25;100.00
36014;BME280;22275;43.208;27.620;2023-03-25T11:11:41;100634.69;;;17.74;100.00
36014;BME280;22275;43.208;27.620;2023-03-25T11:14:09;100617.28;;;17.61;100.00
36014;BME280;22275;43.208;27.620;2023-03-25T11:16:42;100613.78;;;17.79;100.00
36014;BME280;22275;43.208;27.620;2023-03-25T11:19:17;100628.78;;;18.09;100.00
36014;BME280;22275;43.208;27.620;2023-03-25T11:21:46;100635.38;;;18.24;100.00
36014;BME280;22275;43.208;27.620;2023-03-25T11:24:17;100616.75;;;17.76;100.00
36014;BME280;22275;43.208;27.620;2023-03-25T11:26:46;100611.78;;;17.53;100.00
36014;BME280;22275;43.208;27.620;2023-03-25T11:29:19;100619.28;;;17.29;100.00
36014;BME280;22275;43.208;27.620;2023-03-25T11:31:56;100619.75;;;17.43;100.00
36014;BME280;22275;43.208;27.620;2023-03-25T11:34:23;100588.41;;;17.66;100.00
36014;BME280;22275;43.208;27.620;2023-03-25T11:36:53;100596.41;;;17.66;100.00
36014;BME280;22275;43.208;27.620;2023-03-25T11:39:32;100592.84;;;17.46;100.00
36014;BME280;22275;43.208;27.620;2023-03-25T11:42:12;100608.91;;;17.85;100.00
36014;BME280;22275;43.208;27.620;2023-03-25T11:44:40;100594.84;;;17.63;100.00
36014;BME280;22275;43.208;27.620;2023-03-25T11:47:09;100590.59;;;17.32;100.00
36014;BME280;22275;43.208;27.620;2023-03-25T11:49:38;100565.66;;;17.33;100.00
36014;BME280;22275;43.208;27.620;2023-03-25T11:52:08;100600.41;;;16.92;100.00
36014;BME280;22275;43.208;27.620;2023-03-25T11:54:40;100580.66;;;16.85;100.00
36014;BME280;22275;43.208;27.620;2023-03-25T11:57:12;100586.84;;;16.95;100.00
36014;BME280;22275;43.208;27.620;2023-03-25T11:59:43;100591.78;;;17.09;100.00
36014;BME280;22275;43.208;27.620;2023-03-25T12:02:20;100577.50;;;17.10;100.00
36014;BME280;22275;43.208;27.620;2023-03-25T12:04:57;100588.28;;;16.99;100.00
36014;BME280;22275;43.208;27.620;2023-03-25T12:07:24;100567.09;;;16.97;100.00
36014;BME280;22275;43.208;27.620;2023-03-25T12:09:57;100570.28;;;16.82;100.00
36014;BME280;22275;43.208;27.620;2023-03-25T12:12:40;100571.41;;;16.89;100.00
36014;BME280;22275;43.208;27.620;2023-03-25T12:15:21;100578.25;;;17.21;100.00
36014;BME280;22275;43.208;27.620;2023-03-25T12:18:04;100574.72;;;16.72;100.00
36014;BME280;22275;43.208;27.620;2023-03-25T12:20:38;100570.28;;;16.82;100.00
36014;BME280;22275;43.208;27.620;2023-03-25T12:23:14;100587.38;;;16.79;100.00
36014;BME280;22275;43.208;27.620;2023-03-25T12:25:53;100569.97;;;17.24;100.00
36014;BME280;22275;43.208;27.620;2023-03-25T12:31:52;100558.22;;;16.78;100.00
36014;BME280;22275;43.208;27.620;2023-03-25T12:34:33;100575.19;;;16.86;100.00
36014;BME280;22275;43.208;27.620;2023-03-25T12:37:10;100571.41;;;16.89;100.00
36014;BME280;22275;43.208;27.620;2023-03-25T12:40:00;100560.28;;;17.04;100.00
36014;BME280;22275;43.208;27.620;2023-03-25T12:42:42;100549.16;;;16.90;100.00
36014;BME280;22275;43.208;27.620;2023-03-25T12:45:30;100561.09;;;16.95;100.00
36014;BME280;22275;43.208;27.620;2023-03-25T12:48:06;100554.00;;;17.05;100.00
36014;BME280;22275;43.208;27.620;2023-03-25T12:50:48;100538.53;;;16.90;100.00
36014;BME280;22275;43.208;27.620;2023-03-25T12:53:41;100549.75;;;16.93;100.00
36014;BME280;22275;43.208;27.620;2023-03-25T12:56:33;100540.50;;;16.57;100.00
36014;BME280;22275;43.208;27.620;2023-03-25T12:59:20;100539.97;;;16.33;100.00